Weather at Tunis Carthage International Airport

Public forecast

Using degrees Celsius for public forecast. Weather courtesy of forecast.io.

Current aviation weather report (METAR) for Tunis Carthage International Airport

2024/04/13 09:30 (retrieved 38 minutes ago)

DTTA 130930Z 35008KT 9999 SCT030 20/14 Q1025

Aviation forecast (TAF) for Tunis Carthage International Airport

2024/04/13 06:45 (retrieved 3 hours ago)

TAF DTTA 130500Z 1306/1406 32008KT 9999 SCT020 BECMG 1310/1312 05010KT